createdAt,value
2019-01-21T00:01:15.187Z,73.10
2019-01-21T00:03:42.246Z,72.68
2019-01-21T00:06:08.217Z,73.12
2019-01-21T00:08:34.199Z,72.87
2019-01-21T00:11:00.147Z,72.78
2019-01-21T00:13:25.997Z,72.78
2019-01-21T00:15:51.962Z,72.71
2019-01-21T00:18:17.980Z,73.04
2019-01-21T00:20:43.883Z,73.22
2019-01-21T00:23:09.735Z,72.88
2019-01-21T00:25:35.688Z,73.00
2019-01-21T00:28:01.552Z,73.23
2019-01-21T00:30:27.425Z,73.17
2019-01-21T00:32:53.373Z,73.21
2019-01-21T00:35:19.238Z,73.28
2019-01-21T00:37:48.430Z,73.34
2019-01-21T00:40:15.826Z,73.19
2019-01-21T00:42:41.857Z,73.16
2019-01-21T00:45:07.770Z,73.42
2019-01-21T00:47:33.637Z,73.49
2019-01-21T00:49:59.646Z,73.65
2019-01-21T00:52:25.549Z,73.88
2019-01-21T00:54:51.531Z,73.94
2019-01-21T00:57:17.418Z,73.64
2019-01-21T00:59:43.510Z,73.64
2019-01-21T01:02:09.393Z,73.76
2019-01-21T01:04:35.257Z,73.53
2019-01-21T01:07:01.251Z,73.62
2019-01-21T01:09:27.119Z,73.09
2019-01-21T01:11:53.016Z,73.44
2019-01-21T01:14:18.880Z,72.88
2019-01-21T01:16:44.743Z,72.69
2019-01-21T01:19:10.605Z,72.47
2019-01-21T01:21:36.569Z,72.39
2019-01-21T01:24:02.437Z,72.44
2019-01-21T01:26:28.356Z,72.42
2019-01-21T01:28:54.244Z,72.21
2019-01-21T01:31:20.091Z,71.74
2019-01-21T01:33:46.022Z,71.80
2019-01-21T01:36:11.904Z,71.61
2019-01-21T01:38:37.791Z,71.78
2019-01-21T01:41:03.863Z,71.95
2019-01-21T01:43:29.753Z,71.90
2019-01-21T01:45:55.627Z,71.81
2019-01-21T01:48:21.523Z,71.83
2019-01-21T01:50:47.529Z,71.80
2019-01-21T01:53:13.427Z,71.47
2019-01-21T01:55:39.295Z,71.20
2019-01-21T01:58:05.267Z,71.03
2019-01-21T02:00:31.171Z,71.15
2019-01-21T02:02:59.080Z,71.62
2019-01-21T02:05:25.185Z,71.84
2019-01-21T02:07:51.181Z,71.42
2019-01-21T02:10:17.157Z,71.59
2019-01-21T02:12:43.452Z,71.43
2019-01-21T02:15:11.341Z,70.71
2019-01-21T02:17:37.416Z,70.80
2019-01-21T02:20:06.992Z,70.93
2019-01-21T02:22:33.017Z,71.34
2019-01-21T02:25:00.212Z,70.92
2019-01-21T02:27:30.435Z,71.06
2019-01-21T02:30:25.818Z,71.33
2019-01-21T02:33:01.114Z,71.61
2019-01-21T02:35:37.550Z,71.40
2019-01-21T02:38:10.193Z,70.94
2019-01-21T02:40:45.523Z,71.20
2019-01-21T02:43:30.337Z,71.41
2019-01-21T02:46:11.966Z,71.62
2019-01-21T02:48:44.674Z,71.58
2019-01-21T02:51:20.751Z,71.73
2019-01-21T02:54:02.716Z,71.91
2019-01-21T02:56:38.436Z,71.84
2019-01-21T02:59:20.135Z,71.55
2019-01-21T03:02:07.861Z,71.46
2019-01-21T03:05:11.127Z,71.33
2019-01-21T03:07:46.223Z,71.27
2019-01-21T03:10:35.834Z,71.52
2019-01-21T03:13:11.667Z,71.38
2019-01-21T03:15:47.649Z,71.75
2019-01-21T03:18:17.322Z,71.33
2019-01-21T03:21:04.305Z,71.39
2019-01-21T03:23:33.986Z,71.34
2019-01-21T03:26:21.991Z,71.40
2019-01-21T03:28:51.764Z,71.39
2019-01-21T03:31:24.463Z,71.27
2019-01-21T03:34:06.221Z,71.38
2019-01-21T03:36:48.146Z,71.29
2019-01-21T03:39:34.433Z,71.50
2019-01-21T03:42:04.134Z,71.96
2019-01-21T03:44:49.181Z,71.83
2019-01-21T03:47:24.679Z,71.59
2019-01-21T03:50:09.577Z,71.79
2019-01-21T03:52:57.708Z,71.68
2019-01-21T03:55:23.752Z,71.78
2019-01-21T03:57:56.489Z,71.09
2019-01-21T04:00:29.318Z,70.91
2019-01-21T04:03:14.041Z,71.03
2019-01-21T04:05:49.475Z,71.06
2019-01-21T04:08:28.724Z,71.23
2019-01-21T04:11:03.748Z,71.01
2019-01-21T04:13:56.246Z,71.10
2019-01-21T04:16:49.188Z,71.21
2019-01-21T04:19:24.866Z,71.41
2019-01-21T04:22:10.214Z,71.41
2019-01-21T04:24:45.856Z,71.02
2019-01-21T04:27:33.756Z,71.30
2019-01-21T04:30:21.843Z,71.24
2019-01-21T04:32:57.510Z,70.81
2019-01-21T04:35:44.125Z,70.70
2019-01-21T04:38:30.492Z,70.58
2019-01-21T04:41:24.348Z,70.56
2019-01-21T04:44:28.297Z,70.37
2019-01-21T04:47:28.363Z,70.42
2019-01-21T04:50:16.397Z,70.21
2019-01-21T04:52:58.355Z,70.42
2019-01-21T04:55:34.111Z,70.09
2019-01-21T04:58:06.708Z,70.38
2019-01-21T05:00:48.734Z,70.78
2019-01-21T05:03:35.250Z,70.36
2019-01-21T05:06:11.160Z,70.01
2019-01-21T05:08:49.602Z,69.54
2019-01-21T05:11:30.971Z,69.02
2019-01-21T05:14:06.556Z,68.39
2019-01-21T05:16:51.643Z,68.56
2019-01-21T05:19:24.294Z,68.76
2019-01-21T05:22:03.234Z,69.30
2019-01-21T05:24:38.994Z,69.36
2019-01-21T05:27:25.556Z,69.28
2019-01-21T05:30:13.141Z,69.21
2019-01-21T05:33:02.278Z,69.01
2019-01-21T05:35:40.529Z,69.17
2019-01-21T05:38:16.482Z,69.47
2019-01-21T05:40:55.260Z,69.58
2019-01-21T05:43:44.472Z,69.23
2019-01-21T05:46:19.675Z,69.29
2019-01-21T05:48:58.417Z,69.15
2019-01-21T05:51:42.985Z,68.96
2019-01-21T05:54:12.735Z,69.11
2019-01-21T05:56:51.469Z,69.21
2019-01-21T05:59:23.904Z,68.92
2019-01-21T06:01:56.606Z,69.01
2019-01-21T06:04:38.055Z,69.11
2019-01-21T06:07:10.732Z,69.18
2019-01-21T06:09:46.237Z,69.27
2019-01-21T06:12:21.288Z,69.16
2019-01-21T06:15:06.065Z,68.68
2019-01-21T06:17:41.435Z,68.60
2019-01-21T06:20:29.835Z,68.96
2019-01-21T06:23:15.076Z,68.97
2019-01-21T06:26:00.241Z,69.09
2019-01-21T06:28:41.073Z,69.12
2019-01-21T06:31:46.562Z,68.56
2019-01-21T06:34:36.989Z,68.81
2019-01-21T06:37:24.859Z,68.29
2019-01-21T06:40:19.198Z,69.03
2019-01-21T06:43:10.097Z,68.13
2019-01-21T06:46:13.254Z,68.46
2019-01-21T06:49:04.755Z,67.35
2019-01-21T06:51:41.524Z,68.11
2019-01-21T06:54:14.114Z,66.77
2019-01-21T06:56:52.831Z,66.66
2019-01-21T06:59:34.630Z,66.85
2019-01-21T07:02:04.388Z,66.49
2019-01-21T07:04:34.211Z,66.48
2019-01-21T07:07:23.897Z,66.44
2019-01-21T07:09:56.404Z,66.21
2019-01-21T07:12:41.212Z,66.42
2019-01-21T07:15:27.495Z,66.62
2019-01-21T07:18:06.001Z,66.61
2019-01-21T07:20:44.575Z,66.55
2019-01-21T07:23:17.357Z,66.50
2019-01-21T07:26:05.262Z,66.65
2019-01-21T07:28:38.167Z,66.19
2019-01-21T07:31:17.078Z,65.70
2019-01-21T07:33:59.023Z,65.62
2019-01-21T07:36:49.391Z,65.49
2019-01-21T07:39:25.021Z,65.90
2019-01-21T07:42:09.944Z,66.05
2019-01-21T07:44:54.492Z,65.73
2019-01-21T07:47:40.115Z,64.89
2019-01-21T07:50:09.941Z,64.96
2019-01-21T07:52:45.243Z,64.75
2019-01-21T07:55:32.534Z,64.75
2019-01-21T07:58:11.048Z,64.19
2019-01-21T08:00:46.576Z,64.37
2019-01-21T08:03:40.946Z,64.19
2019-01-21T08:06:19.684Z,64.22
2019-01-21T08:08:52.153Z,64.26
2019-01-21T08:11:24.910Z,64.18
2019-01-21T08:14:00.545Z,64.11
2019-01-21T08:16:42.374Z,63.58
2019-01-21T08:19:14.836Z,62.73
2019-01-21T08:22:17.703Z,61.96
2019-01-21T08:25:19.474Z,61.92
2019-01-21T08:27:55.610Z,60.78
2019-01-21T08:30:42.097Z,60.60
2019-01-21T08:33:14.802Z,60.04
2019-01-21T08:35:50.658Z,59.78
2019-01-21T08:38:23.504Z,59.73
2019-01-21T08:40:56.160Z,59.86
2019-01-21T08:43:40.438Z,59.69
2019-01-21T08:46:31.146Z,59.44
2019-01-21T08:49:00.954Z,59.14
2019-01-21T08:51:42.915Z,58.47
2019-01-21T08:54:15.597Z,58.54
2019-01-21T08:56:57.313Z,57.92
2019-01-21T08:59:30.015Z,57.50
2019-01-21T09:02:12.064Z,57.61
2019-01-21T09:04:57.110Z,57.62
2019-01-21T09:07:41.877Z,56.94
2019-01-21T09:10:40.927Z,55.93
2019-01-21T09:13:22.425Z,55.13
2019-01-21T09:16:03.560Z,55.18
2019-01-21T09:18:39.122Z,54.95
2019-01-21T09:21:11.322Z,54.05
2019-01-21T09:23:44.701Z,53.79
2019-01-21T09:26:34.059Z,53.75
2019-01-21T09:29:06.815Z,54.25
2019-01-21T09:31:57.679Z,54.14
2019-01-21T09:34:27.439Z,53.79
2019-01-21T09:37:17.171Z,54.49
2019-01-21T09:39:49.846Z,54.49
2019-01-21T09:42:28.740Z,54.24
2019-01-21T09:45:13.191Z,54.80
2019-01-21T09:47:38.944Z,54.80
2019-01-21T09:50:05.041Z,55.84
2019-01-21T09:52:30.926Z,55.60
2019-01-21T09:54:56.811Z,55.60
2019-01-21T09:57:23.201Z,55.62
2019-01-21T09:59:50.020Z,55.53
2019-01-21T10:02:16.705Z,55.53
2019-01-21T10:04:43.808Z,55.57
2019-01-21T10:07:16.072Z,55.49
2019-01-21T10:09:57.800Z,55.80
2019-01-21T10:12:44.348Z,55.10
2019-01-21T10:15:30.121Z,54.91
2019-01-21T10:18:21.168Z,54.40
2019-01-21T10:21:18.323Z,53.32
2019-01-21T10:23:51.053Z,52.50
2019-01-21T10:26:32.915Z,51.93
2019-01-21T10:29:08.951Z,51.87
2019-01-21T10:31:50.313Z,51.71
2019-01-21T10:34:50.159Z,50.81
2019-01-21T10:37:47.475Z,50.96
2019-01-21T10:40:20.092Z,49.88
2019-01-21T10:43:12.151Z,48.90
2019-01-21T10:46:03.131Z,49.62
2019-01-21T10:49:00.204Z,49.19
2019-01-21T10:51:54.385Z,49.28
2019-01-21T10:54:32.918Z,49.31
2019-01-21T10:57:08.428Z,49.04
2019-01-21T10:59:50.416Z,47.20
2019-01-21T11:02:36.753Z,47.21
2019-01-21T11:05:09.252Z,46.69
2019-01-21T11:07:51.096Z,47.31
2019-01-21T11:10:25.838Z,46.38
2019-01-21T11:12:58.625Z,45.12
2019-01-21T11:15:28.309Z,44.42
2019-01-21T11:18:04.335Z,44.61
2019-01-21T11:20:42.499Z,44.53
2019-01-21T11:23:33.892Z,44.57
2019-01-21T11:26:22.927Z,44.61
2019-01-21T11:28:52.714Z,43.66
2019-01-21T11:31:30.961Z,43.79
2019-01-21T11:34:09.455Z,43.13
2019-01-21T11:36:58.683Z,43.35
2019-01-21T11:39:28.401Z,42.70
2019-01-21T11:42:16.433Z,41.59
2019-01-21T11:44:55.190Z,43.06
2019-01-21T11:47:49.264Z,42.05
2019-01-21T11:50:19.017Z,42.68
2019-01-21T11:52:57.451Z,43.24
2019-01-21T11:55:33.076Z,44.49
2019-01-21T11:58:12.381Z,45.44
2019-01-21T12:00:50.815Z,46.38
2019-01-21T12:03:23.681Z,46.33
2019-01-21T12:05:50.957Z,46.73
2019-01-21T12:08:23.394Z,47.06
2019-01-21T12:10:56.068Z,46.51
2019-01-21T12:13:47.348Z,47.19
2019-01-21T12:16:20.089Z,46.73
2019-01-21T12:18:59.058Z,46.65
2019-01-21T12:21:31.478Z,46.25
2019-01-21T12:24:01.147Z,45.91
2019-01-21T12:26:39.878Z,45.54
2019-01-21T12:29:12.602Z,44.23
2019-01-21T12:31:54.385Z,44.54
2019-01-21T12:34:33.004Z,44.20
2019-01-21T12:37:02.664Z,43.70
2019-01-21T12:39:41.680Z,44.65
2019-01-21T12:42:11.372Z,44.09
2019-01-21T12:44:55.687Z,43.86
2019-01-21T12:47:31.235Z,44.69
2019-01-21T12:50:24.099Z,43.77
2019-01-21T12:52:53.450Z,43.42
2019-01-21T12:55:29.162Z,42.16
2019-01-21T12:58:08.144Z,43.14
2019-01-21T13:00:44.180Z,43.34
2019-01-21T13:03:23.259Z,41.84
2019-01-21T13:06:09.903Z,43.77
2019-01-21T13:08:45.897Z,39.46
2019-01-21T13:11:18.741Z,31.68
2019-01-21T13:13:54.716Z,32.75
2019-01-21T13:16:27.408Z,31.29
2019-01-21T13:19:30.631Z,31.07
2019-01-21T13:22:14.907Z,36.77
2019-01-21T13:24:55.677Z,35.99
2019-01-21T13:27:51.372Z,43.80
2019-01-21T13:30:29.888Z,43.35
2019-01-21T13:33:15.658Z,43.52
2019-01-21T13:36:00.630Z,44.88
2019-01-21T13:38:42.029Z,45.04
2019-01-21T13:41:11.720Z,46.71
2019-01-21T13:43:52.938Z,45.51
2019-01-21T13:46:44.341Z,45.64
2019-01-21T13:49:14.045Z,45.28
2019-01-21T13:51:49.607Z,45.08
2019-01-21T13:54:28.206Z,44.26
2019-01-21T13:57:01.259Z,45.17
2019-01-21T13:59:53.866Z,44.57
2019-01-21T14:02:26.321Z,45.51
2019-01-21T14:05:07.859Z,45.52
2019-01-21T14:07:57.430Z,44.94
2019-01-21T14:10:32.947Z,44.23
2019-01-21T14:13:05.795Z,43.32
2019-01-21T14:15:38.436Z,43.90
2019-01-21T14:18:25.962Z,44.89
2019-01-21T14:21:01.725Z,45.13
2019-01-21T14:23:52.870Z,44.78
2019-01-21T14:26:39.365Z,44.30
2019-01-21T14:29:15.363Z,43.95
2019-01-21T14:31:50.795Z,45.07
2019-01-21T14:34:26.024Z,44.81
2019-01-21T14:37:29.111Z,45.10
2019-01-21T14:40:14.339Z,45.93
2019-01-21T14:42:55.885Z,46.40
2019-01-21T14:45:34.541Z,46.15
2019-01-21T14:48:30.443Z,45.71
2019-01-21T14:51:19.596Z,45.28
2019-01-21T14:53:52.060Z,46.14
2019-01-21T14:56:24.842Z,46.11
2019-01-21T14:59:11.105Z,47.06
2019-01-21T15:01:46.804Z,47.60
2019-01-21T15:04:34.641Z,48.92
2019-01-21T15:07:07.479Z,50.10
2019-01-21T15:09:39.999Z,51.42
2019-01-21T15:12:21.824Z,51.67
2019-01-21T15:15:24.941Z,52.11
2019-01-21T15:18:14.597Z,52.60
2019-01-21T15:20:47.351Z,54.06
2019-01-21T15:23:41.633Z,54.79
2019-01-21T15:26:11.317Z,55.13
2019-01-21T15:29:15.918Z,55.45
2019-01-21T15:31:51.650Z,55.78
2019-01-21T15:34:33.650Z,56.03
2019-01-21T15:37:24.707Z,56.28
2019-01-21T15:39:57.559Z,57.54
2019-01-21T15:42:33.300Z,57.54
2019-01-21T15:45:25.644Z,57.75
2019-01-21T15:47:56.796Z,58.20
2019-01-21T15:50:54.117Z,59.21
2019-01-21T15:53:42.180Z,59.61
2019-01-21T15:56:30.266Z,60.25
2019-01-21T15:59:02.945Z,60.71
2019-01-21T16:01:32.617Z,61.18
2019-01-21T16:04:08.186Z,61.74
2019-01-21T16:06:37.891Z,61.97
2019-01-21T16:09:07.566Z,62.84
2019-01-21T16:11:37.273Z,63.30
2019-01-21T16:14:03.257Z,63.30
2019-01-21T16:16:35.868Z,63.51
2019-01-21T16:19:08.626Z,63.80
2019-01-21T16:21:53.861Z,64.00
2019-01-21T16:24:23.583Z,64.08
2019-01-21T16:26:55.974Z,64.33
2019-01-21T16:29:25.632Z,64.08
2019-01-21T16:31:53.738Z,64.39
2019-01-21T16:34:38.346Z,64.92
2019-01-21T16:37:20.153Z,64.79
2019-01-21T16:40:08.016Z,64.79
2019-01-21T16:42:34.505Z,65.62
2019-01-21T16:45:00.400Z,65.62
2019-01-21T16:47:26.653Z,66.04
2019-01-21T16:49:52.612Z,65.78
2019-01-21T16:52:18.507Z,66.00
2019-01-21T16:54:44.368Z,66.11
2019-01-21T16:57:13.781Z,66.09
2019-01-21T16:59:39.729Z,65.92
2019-01-21T17:02:05.601Z,65.92
2019-01-21T17:04:32.812Z,64.97
2019-01-21T17:06:58.897Z,64.40
2019-01-21T17:09:24.795Z,64.40
2019-01-21T17:11:50.685Z,64.44
2019-01-21T17:14:16.557Z,63.87
2019-01-21T17:16:42.574Z,63.52
2019-01-21T17:19:08.478Z,63.62
2019-01-21T17:24:01.264Z,63.52
2019-01-21T17:26:27.191Z,63.81
2019-01-21T17:28:54.116Z,63.50
2019-01-21T17:31:20.054Z,62.88
2019-01-21T17:33:45.979Z,62.88
2019-01-21T17:36:11.922Z,63.04
2019-01-21T17:38:37.810Z,63.15
2019-01-21T17:41:03.747Z,63.17
2019-01-21T17:43:29.736Z,63.20
2019-01-21T17:45:55.615Z,63.90
2019-01-21T17:48:21.496Z,63.90
2019-01-21T17:50:47.402Z,64.32
2019-01-21T17:53:13.279Z,64.25
2019-01-21T17:55:39.156Z,64.33
2019-01-21T17:58:05.081Z,64.45
2019-01-21T18:00:30.961Z,64.33
2019-01-21T18:02:57.006Z,64.33
2019-01-21T18:05:22.862Z,64.08
2019-01-21T18:07:48.749Z,64.27
2019-01-21T18:10:16.703Z,64.46
2019-01-21T18:12:42.688Z,65.11
2019-01-21T18:15:10.271Z,65.11
2019-01-21T18:17:36.223Z,65.11
2019-01-21T18:20:08.796Z,64.97
2019-01-21T18:22:34.651Z,64.75
2019-01-21T18:25:00.575Z,65.26
2019-01-21T18:27:26.520Z,64.91
2019-01-21T18:29:52.411Z,64.29
2019-01-21T18:32:18.278Z,64.39
2019-01-21T18:34:44.168Z,64.26
2019-01-21T18:37:10.117Z,64.51
2019-01-21T18:39:35.994Z,64.45
2019-01-21T18:42:02.126Z,64.98
2019-01-21T18:44:28.046Z,65.31
2019-01-21T18:46:54.158Z,65.15
2019-01-21T18:49:22.908Z,64.77
2019-01-21T18:51:47.905Z,64.62
2019-01-21T18:54:13.877Z,65.00
2019-01-21T18:56:43.787Z,65.22
2019-01-21T18:59:09.748Z,65.08
2019-01-21T19:01:35.652Z,65.13
2019-01-21T19:04:01.526Z,65.15
2019-01-21T19:06:27.445Z,65.04
2019-01-21T19:08:53.328Z,65.30
2019-01-21T19:11:19.194Z,65.16
2019-01-21T19:13:45.107Z,65.40
2019-01-21T19:16:10.969Z,65.12
2019-01-21T19:18:36.942Z,65.24
2019-01-21T19:21:02.792Z,65.38
2019-01-21T19:23:28.689Z,65.89
2019-01-21T19:25:54.575Z,66.12
2019-01-21T19:28:20.621Z,66.10
2019-01-21T19:30:46.604Z,65.83
2019-01-21T19:33:12.907Z,65.35
2019-01-21T19:35:38.781Z,65.35
2019-01-21T19:38:04.689Z,65.78
2019-01-21T19:40:32.142Z,65.75
2019-01-21T19:42:58.095Z,65.76
2019-01-21T19:45:24.089Z,65.84
2019-01-21T19:47:50.036Z,65.33
2019-01-21T19:50:20.649Z,65.07
2019-01-21T19:52:46.504Z,64.97
2019-01-21T19:55:21.530Z,65.21
2019-01-21T19:57:47.618Z,65.61
2019-01-21T20:00:17.311Z,65.59
2019-01-21T20:02:44.527Z,65.86
2019-01-21T20:05:10.865Z,66.04
2019-01-21T20:07:36.749Z,66.34
2019-01-21T20:10:06.395Z,66.42
2019-01-21T20:12:32.291Z,66.48
2019-01-21T20:14:58.991Z,66.92
2019-01-21T20:17:24.849Z,67.07
2019-01-21T20:19:50.724Z,67.23
2019-01-21T20:22:16.607Z,67.30
2019-01-21T20:24:42.578Z,67.41
2019-01-21T20:27:08.524Z,67.51
2019-01-21T20:29:34.417Z,67.81
2019-01-21T20:32:00.285Z,67.55
2019-01-21T20:34:26.534Z,67.00
2019-01-21T20:36:52.441Z,67.18
2019-01-21T20:39:18.357Z,66.94
2019-01-21T20:41:44.190Z,66.80
2019-01-21T20:44:10.087Z,66.34
2019-01-21T20:46:36.003Z,66.29
2019-01-21T20:49:01.870Z,66.79
2019-01-21T20:51:27.753Z,66.61
2019-01-21T20:53:53.660Z,67.14
2019-01-21T20:56:19.694Z,67.01
2019-01-21T20:58:45.604Z,66.76
2019-01-21T21:01:11.599Z,66.48
2019-01-21T21:03:37.458Z,67.04
2019-01-21T21:06:03.353Z,66.41
2019-01-21T21:08:29.348Z,66.64
2019-01-21T21:10:55.222Z,66.70
2019-01-21T21:13:21.251Z,66.41
2019-01-21T21:15:47.286Z,66.68
2019-01-21T21:18:13.293Z,66.65
2019-01-21T21:20:39.162Z,66.60
2019-01-21T21:23:05.029Z,66.27
2019-01-21T21:25:30.962Z,65.36
2019-01-21T21:27:56.846Z,65.49
2019-01-21T21:30:25.151Z,65.88
2019-01-21T21:32:51.031Z,65.88
2019-01-21T21:35:17.376Z,66.21
2019-01-21T21:37:43.256Z,66.31
2019-01-21T21:40:12.022Z,66.25
2019-01-21T21:42:37.940Z,66.52
2019-01-21T21:45:07.306Z,66.87
2019-01-21T21:47:33.206Z,67.36
2019-01-21T21:49:59.102Z,67.37
2019-01-21T21:52:27.856Z,67.39
2019-01-21T21:54:53.238Z,67.61
2019-01-21T21:57:19.111Z,67.20
2019-01-21T21:59:45.020Z,66.72
2019-01-21T22:02:10.924Z,66.75
2019-01-21T22:04:36.797Z,66.16
2019-01-21T22:07:02.681Z,65.91
2019-01-21T22:09:28.565Z,65.51
2019-01-21T22:11:54.496Z,65.16
2019-01-21T22:14:20.500Z,65.52
2019-01-21T22:16:46.369Z,65.30
2019-01-21T22:19:12.247Z,65.37
2019-01-21T22:21:38.136Z,65.32
2019-01-21T22:24:04.022Z,65.32
2019-01-21T22:26:29.867Z,65.29
2019-01-21T22:28:55.862Z,65.34
2019-01-21T22:31:21.745Z,64.69
2019-01-21T22:33:47.628Z,64.82
2019-01-21T22:36:13.539Z,64.93
2019-01-21T22:38:39.562Z,64.84
2019-01-21T22:41:06.017Z,64.90
2019-01-21T22:43:31.946Z,64.47
2019-01-21T22:45:57.838Z,64.47
2019-01-21T22:48:23.756Z,64.52
2019-01-21T22:50:49.623Z,64.57
2019-01-21T22:53:15.542Z,64.30
2019-01-21T22:55:41.394Z,63.93
2019-01-21T22:58:07.693Z,63.88
2019-01-21T23:00:45.939Z,64.02
2019-01-21T23:03:12.139Z,63.13
2019-01-21T23:05:38.133Z,63.29
2019-01-21T23:08:03.982Z,63.12
2019-01-21T23:10:29.884Z,63.22
2019-01-21T23:12:55.779Z,62.99
2019-01-21T23:15:21.657Z,63.39
2019-01-21T23:17:47.551Z,63.06
2019-01-21T23:20:13.458Z,62.92
2019-01-21T23:22:39.314Z,62.96
2019-01-21T23:25:05.787Z,63.25
2019-01-21T23:27:31.752Z,63.84
2019-01-21T23:29:57.630Z,63.89
2019-01-21T23:32:23.478Z,63.27
2019-01-21T23:34:49.347Z,63.29
2019-01-21T23:37:15.230Z,63.83
2019-01-21T23:39:41.105Z,63.70
2019-01-21T23:42:06.996Z,63.69
2019-01-21T23:44:32.889Z,63.73
2019-01-21T23:46:59.103Z,63.51
2019-01-21T23:49:24.976Z,63.80
2019-01-21T23:51:50.917Z,63.44
2019-01-21T23:54:16.793Z,63.31
2019-01-21T23:56:42.653Z,63.37
2019-01-21T23:59:08.536Z,63.01
